Time;durP1;ratioP1;P1;durP2;ratioP2;P2;SDS_P1;SDS_P2;PMS_P1;PMS_P2;Temp;Humidity;BMP_temperature;BMP_pressure;BME280_temperature;BME280_humidity;BME280_pressure;Samples;Min_cycle;Max_cycle;Signal;HPM_P1;HPM_P2
2022/03/14 00:01:54;;;;;;;2.07;1.30;;;;;;;11.92;58.65;101529.69;5270050;28;20595;-74
2022/03/14 00:04:25;;;;;;;1.93;1.40;;;;;;;12.01;58.29;101531.81;5275016;28;20024;-74
2022/03/14 00:06:57;;;;;;;1.53;1.10;;;;;;;11.96;58.38;101532.06;5274557;28;20059;-74
2022/03/14 00:09:30;;;;;;;2.53;1.53;;;;;;;11.97;58.42;101533.75;5273100;28;20427;-74
2022/03/14 00:12:01;;;;;;;1.77;1.40;;;;;;;11.97;58.57;101536.38;5274444;28;20028;-74
2022/03/14 00:14:32;;;;;;;3.63;1.60;;;;;;;11.94;58.54;101538.31;5263807;28;20460;-72
2022/03/14 00:17:06;;;;;;;1.83;1.33;;;;;;;11.85;59.38;101543.13;5253101;28;20032;-73
2022/03/14 00:19:39;;;;;;;1.60;1.10;;;;;;;11.89;59.17;101546.44;5254749;28;20701;-73
2022/03/14 00:22:11;;;;;;;2.00;1.60;;;;;;;11.84;59.21;101557.22;5252566;28;20028;-73
2022/03/14 00:24:43;;;;;;;2.40;1.63;;;;;;;11.90;58.84;101556.03;5241968;28;20102;-73
2022/03/14 00:27:14;;;;;;;1.70;1.37;;;;;;;11.88;59.13;101557.88;5243103;28;20078;-73
2022/03/14 00:29:45;;;;;;;2.30;1.47;;;;;;;11.91;59.28;101562.97;5240597;28;20029;-73
2022/03/14 00:32:17;;;;;;;3.60;1.90;;;;;;;11.84;59.14;101557.22;5257664;28;20772;-73
2022/03/14 00:34:48;;;;;;;1.93;1.40;;;;;;;11.83;59.55;101567.78;5242269;28;20546;-73
2022/03/14 00:37:19;;;;;;;2.30;1.77;;;;;;;11.92;59.15;101571.69;5240147;28;20029;-73
2022/03/14 00:39:53;;;;;;;2.40;1.80;;;;;;;11.81;59.61;101578.38;5240569;28;20087;-73
2022/03/14 00:42:25;;;;;;;2.20;1.50;;;;;;;11.85;59.54;101577.25;5242913;28;20037;-73
2022/03/14 00:44:56;;;;;;;2.10;1.67;;;;;;;11.84;59.66;101580.81;5243082;28;20209;-73
2022/03/14 00:47:28;;;;;;;2.27;1.57;;;;;;;11.68;60.33;101585.19;5241553;28;20068;-73
2022/03/14 00:49:59;;;;;;;2.67;1.43;;;;;;;11.73;60.24;101588.41;5242347;28;20025;-73
2022/03/14 00:52:31;;;;;;;3.00;1.70;;;;;;;11.69;60.20;101579.88;5240775;28;20035;-73
2022/03/14 00:55:02;;;;;;;2.00;1.53;;;;;;;11.72;60.32;101592.81;5241502;28;20038;-73
2022/03/14 00:57:34;;;;;;;3.70;1.80;;;;;;;11.76;60.77;101593.50;5242195;28;20036;-73
2022/03/14 01:00:06;;;;;;;2.83;1.83;;;;;;;11.60;63.82;101599.56;5241935;28;20094;-73
2022/03/14 01:02:37;;;;;;;4.47;2.00;;;;;;;11.71;63.63;101598.16;5242553;28;20044;-73
2022/03/14 01:05:09;;;;;;;3.07;1.87;;;;;;;11.52;63.87;101601.72;5242146;28;20157;-73
2022/03/14 01:07:40;;;;;;;2.37;1.77;;;;;;;11.53;64.15;101598.19;5242293;28;20403;-73
2022/03/14 01:10:13;;;;;;;2.23;1.90;;;;;;;11.43;64.40;101612.72;5241674;28;20127;-73
2022/03/14 01:12:44;;;;;;;2.60;2.10;;;;;;;11.43;63.84;101612.72;5242971;28;20462;-72
2022/03/14 01:15:16;;;;;;;2.33;2.07;;;;;;;11.42;63.85;101605.75;5241981;28;20025;-73
2022/03/14 01:17:47;;;;;;;4.03;2.03;;;;;;;11.53;63.61;101606.06;5241934;28;20040;-73
2022/03/14 01:20:19;;;;;;;2.37;1.77;;;;;;;11.38;63.77;101603.28;5239877;28;20068;-73
2022/03/14 01:22:54;;;;;;;3.13;2.10;;;;;;;11.59;63.91;101618.03;5241391;28;20029;-73
2022/03/14 01:25:25;;;;;;;3.17;2.00;;;;;;;11.60;64.01;101624.94;5243691;28;20029;-73
2022/03/14 01:27:57;;;;;;;2.40;2.00;;;;;;;11.50;64.41;101624.59;5242558;28;20025;-73
2022/03/14 01:30:28;;;;;;;2.37;1.80;;;;;;;11.57;63.54;101625.13;5240775;28;20033;-73
2022/03/14 01:33:00;;;;;;;2.30;1.73;;;;;;;11.50;63.80;101624.59;5248398;28;20035;-74
2022/03/14 01:35:31;;;;;;;3.03;1.93;;;;;;;11.47;64.14;101629.97;5251506;28;20067;-73
2022/03/14 01:38:02;;;;;;;2.33;1.93;;;;;;;11.32;65.07;101632.47;5249672;28;20492;-73
2022/03/14 01:40:34;;;;;;;2.57;1.97;;;;;;;11.38;64.55;101642.63;5251079;28;20494;-74
2022/03/14 01:43:05;;;;;;;2.63;1.90;;;;;;;11.39;64.51;101643.50;5251712;28;20357;-74
2022/03/14 01:45:37;;;;;;;3.27;2.63;;;;;;;11.21;65.29;101640.00;5252481;28;20021;-74
2022/03/14 01:48:09;;;;;;;4.47;2.07;;;;;;;11.36;64.71;101639.22;5249774;28;20017;-74
2022/03/14 01:50:40;;;;;;;3.20;2.70;;;;;;;11.37;64.16;101630.44;5251198;28;20017;-73
2022/03/14 01:53:13;;;;;;;3.90;2.17;;;;;;;11.43;64.25;101637.13;5250610;28;20021;-73
2022/03/14 01:55:45;;;;;;;2.93;2.27;;;;;;;11.53;63.85;101650.66;5252249;28;20488;-73
2022/03/14 01:58:17;;;;;;;3.00;2.20;;;;;;;11.21;65.15;101653.09;5251852;28;20087;-73
2022/03/14 02:00:48;;;;;;;3.43;2.80;;;;;;;11.29;64.66;101655.38;5250775;28;20017;-73
2022/03/14 02:03:19;;;;;;;2.53;1.97;;;;;;;11.24;65.13;101652.97;5251831;28;20035;-73
2022/03/14 02:05:51;;;;;;;3.73;2.27;;;;;;;11.14;66.21;101647.31;5251389;28;20132;-73
2022/03/14 02:08:22;;;;;;;2.63;2.17;;;;;;;10.94;66.21;101633.44;5250709;28;20037;-73
2022/03/14 02:10:54;;;;;;;3.30;2.33;;;;;;;11.24;65.53;101660.84;5250372;28;20542;-73
2022/03/14 02:13:25;;;;;;;3.30;2.80;;;;;;;11.14;65.92;101649.94;5250624;28;20036;-73
2022/03/14 02:15:56;;;;;;;3.03;2.33;;;;;;;11.27;66.24;101672.94;5248692;28;20035;-73
2022/03/14 02:18:28;;;;;;;4.30;3.27;;;;;;;11.17;66.47;101676.00;5251062;28;20033;-74
2022/03/14 02:20:59;;;;;;;3.63;2.50;;;;;;;11.10;66.61;101674.63;5251221;28;20033;-73
2022/03/14 02:23:30;;;;;;;4.43;2.83;;;;;;;11.14;66.84;101681.41;5250403;28;20633;-74
2022/03/14 02:26:02;;;;;;;4.10;2.73;;;;;;;11.09;66.64;101675.53;5251710;28;20032;-74
2022/03/14 02:28:34;;;;;;;4.30;2.70;;;;;;;11.12;66.58;101684.09;5251077;28;20113;-74
2022/03/14 02:31:05;;;;;;;2.97;2.10;;;;;;;10.99;67.26;101688.25;5250954;28;20112;-74
2022/03/14 02:33:36;;;;;;;4.27;2.73;;;;;;;11.12;66.25;101668.38;5251095;28;20041;-73
2022/03/14 02:36:07;;;;;;;3.23;2.50;;;;;;;11.05;67.05;101682.69;5251197;28;20036;-73
2022/03/14 02:38:39;;;;;;;3.10;2.63;;;;;;;11.02;66.85;101672.38;5250281;28;20024;-73
2022/03/14 02:41:10;;;;;;;4.83;2.63;;;;;;;11.00;67.75;101689.94;5250811;28;20060;-74
2022/03/14 02:43:41;;;;;;;3.57;2.67;;;;;;;10.97;67.17;101677.84;5251512;28;20082;-73
2022/03/14 02:46:13;;;;;;;4.33;2.57;;;;;;;11.00;67.41;101690.78;5250058;28;20036;-74
2022/03/14 02:48:44;;;;;;;4.10;2.73;;;;;;;10.96;67.79;101694.47;5251693;28;20571;-74
2022/03/14 02:51:16;;;;;;;3.60;3.13;;;;;;;10.95;67.72;101694.56;5249752;28;20048;-73
2022/03/14 02:53:47;;;;;;;3.10;2.40;;;;;;;10.96;68.01;101694.47;5250461;28;20040;-73
2022/03/14 02:56:20;;;;;;;3.67;2.37;;;;;;;10.92;68.10;101699.94;5248987;28;20496;-73
2022/03/14 02:58:53;;;;;;;4.07;2.60;;;;;;;10.94;67.98;101719.06;5250567;28;20057;-73
2022/03/14 03:01:25;;;;;;;4.35;2.75;;;;;;;10.93;67.86;101726.09;5248393;28;20021;-73
2022/03/14 03:03:56;;;;;;;3.77;2.70;;;;;;;10.86;68.17;101730.75;5251105;28;20416;-73
2022/03/14 03:06:27;;;;;;;3.87;2.73;;;;;;;10.79;68.57;101728.53;5250345;28;20108;-73
2022/03/14 03:09:03;;;;;;;2.80;2.47;;;;;;;10.77;68.45;101720.69;5249271;28;20045;-73
2022/03/14 03:11:34;;;;;;;2.93;2.40;;;;;;;10.81;68.11;101735.38;5250824;28;20044;-73
2022/03/14 03:14:06;;;;;;;3.20;2.80;;;;;;;10.93;67.48;101748.81;5250473;28;20025;-73
2022/03/14 03:16:38;;;;;;;4.63;2.40;;;;;;;10.92;67.77;101752.38;5249400;28;20069;-73
2022/03/14 03:19:09;;;;;;;3.20;2.63;;;;;;;10.70;68.35;101756.00;5250167;28;20025;-73
2022/03/14 03:21:40;;;;;;;2.77;2.40;;;;;;;10.72;68.74;101764.59;5249781;28;20128;-73
2022/03/14 03:24:13;;;;;;;3.00;2.70;;;;;;;10.55;70.65;101768.00;5250202;28;20543;-73
2022/03/14 03:26:44;;;;;;;2.97;2.30;;;;;;;10.57;71.22;101772.25;5250913;28;20056;-73
2022/03/14 03:29:15;;;;;;;3.50;2.57;;;;;;;10.48;73.09;101783.13;5249021;28;20029;-73
2022/03/14 03:31:47;;;;;;;3.30;2.57;;;;;;;10.37;73.86;101780.94;5250355;28;20072;-73
2022/03/14 03:34:18;;;;;;;3.57;2.50;;;;;;;10.51;73.28;101796.09;5250502;28;20039;-73
2022/03/14 03:36:50;;;;;;;3.30;2.80;;;;;;;10.37;73.66;101804.53;5249113;28;20422;-73
2022/03/14 03:39:21;;;;;;;4.07;2.80;;;;;;;10.50;72.61;101812.75;5250564;28;20032;-73
2022/03/14 03:41:52;;;;;;;4.50;2.30;;;;;;;10.44;72.38;101810.38;5250075;28;20209;-73
2022/03/14 03:44:23;;;;;;;3.57;3.17;;;;;;;10.45;71.72;101820.78;5250298;28;20033;-72
2022/03/14 03:46:55;;;;;;;3.67;2.80;;;;;;;10.23;73.20;101820.81;5250064;28;20031;-73
2022/03/14 03:49:27;;;;;;;3.70;2.87;;;;;;;10.24;73.08;101833.00;5250328;28;20108;-73
2022/03/14 03:51:59;;;;;;;4.73;3.33;;;;;;;10.19;73.52;101830.59;5247956;28;20403;-73
2022/03/14 03:54:30;;;;;;;3.53;2.93;;;;;;;10.21;74.45;101833.16;5250248;28;20021;-73
2022/03/14 03:57:02;;;;;;;4.67;3.40;;;;;;;10.13;74.33;101831.72;5249277;28;20032;-73
2022/03/14 03:59:33;;;;;;;5.30;3.63;;;;;;;9.96;74.88;101826.31;5249590;28;20036;-73
2022/03/14 04:02:05;;;;;;;5.03;3.83;;;;;;;10.11;75.06;101846.63;5251294;28;20452;-73
2022/03/14 04:04:37;;;;;;;4.17;2.83;;;;;;;9.93;76.11;101851.69;5253937;28;20033;-73
2022/03/14 04:07:08;;;;;;;4.57;3.53;;;;;;;10.05;75.78;101865.22;5252769;28;20709;-73
2022/03/14 04:09:40;;;;;;;5.47;3.53;;;;;;;10.02;76.01;101860.06;5253010;28;20123;-73
2022/03/14 04:12:11;;;;;;;4.33;3.50;;;;;;;10.01;76.40;101871.47;5251576;28;20029;-73
2022/03/14 04:14:43;;;;;;;5.10;3.47;;;;;;;9.97;77.38;101882.97;5252744;28;20021;-73
2022/03/14 04:17:14;;;;;;;5.73;3.50;;;;;;;9.97;77.60;101875.13;5253024;28;20028;-73
2022/03/14 04:19:47;;;;;;;4.83;3.63;;;;;;;9.77;78.92;101866.31;5253892;28;20059;-73
2022/03/14 04:22:19;;;;;;;6.93;4.27;;;;;;;10.01;77.77;101880.19;5252840;28;20493;-73
2022/03/14 04:24:50;;;;;;;6.53;4.20;;;;;;;9.86;78.85;101894.72;5253817;28;20060;-73
2022/03/14 04:27:22;;;;;;;4.77;3.73;;;;;;;9.95;78.31;101892.66;5253164;28;20029;-73
2022/03/14 04:29:53;;;;;;;6.37;3.97;;;;;;;9.91;78.21;101900.63;5253932;28;20028;-73
2022/03/14 04:32:24;;;;;;;5.17;3.80;;;;;;;9.80;78.85;101895.84;5251864;28;20056;-73
2022/03/14 04:34:56;;;;;;;6.20;3.87;;;;;;;9.88;78.04;101903.38;5254072;28;20025;-73
2022/03/14 04:37:27;;;;;;;4.13;3.73;;;;;;;9.89;78.21;101905.09;5251223;28;20035;-73
2022/03/14 04:39:58;;;;;;;5.50;4.27;;;;;;;9.89;78.06;101912.94;5253151;28;20013;-73
2022/03/14 04:42:29;;;;;;;5.90;4.33;;;;;;;9.85;78.63;101913.09;5252233;28;20090;-73
2022/03/14 04:45:01;;;;;;;4.90;4.40;;;;;;;9.91;78.21;101913.69;5252455;28;20072;-74
2022/03/14 04:47:33;;;;;;;4.37;3.80;;;;;;;9.89;78.16;101912.94;5253807;28;20025;-73
2022/03/14 04:50:06;;;;;;;6.27;4.40;;;;;;;9.93;77.80;101917.13;5252446;28;20025;-73
2022/03/14 04:52:37;;;;;;;6.50;5.30;;;;;;;9.79;77.78;101916.84;5252575;28;20036;-73
2022/03/14 04:55:08;;;;;;;6.93;5.20;;;;;;;9.82;77.91;101921.06;5252662;28;20025;-73
2022/03/14 04:57:40;;;;;;;8.63;5.00;;;;;;;9.74;78.38;101926.63;5253119;28;20036;-73
2022/03/14 05:00:12;;;;;;;5.87;4.77;;;;;;;9.72;78.07;101931.88;5252861;28;20387;-72
2022/03/14 05:02:44;;;;;;;7.70;4.70;;;;;;;9.71;78.44;101939.78;5253058;28;20476;-73
2022/03/14 05:05:15;;;;;;;8.60;5.23;;;;;;;9.60;78.69;101948.91;5252520;28;20083;-73
2022/03/14 05:07:46;;;;;;;7.53;5.43;;;;;;;9.58;78.91;101950.75;5252146;28;20064;-73
2022/03/14 05:10:17;;;;;;;7.13;5.00;;;;;;;9.62;78.76;101952.31;5252555;28;20049;-73
2022/03/14 05:12:49;;;;;;;8.67;5.53;;;;;;;9.60;78.57;101966.38;5252442;28;20035;-73
2022/03/14 05:15:20;;;;;;;7.17;5.60;;;;;;;9.61;78.37;101970.69;5252510;28;20090;-73
2022/03/14 05:17:52;;;;;;;8.43;6.07;;;;;;;9.59;78.55;101973.38;5252678;28;20121;-73
2022/03/14 05:20:23;;;;;;;7.93;4.67;;;;;;;9.61;78.04;101976.78;5258094;28;20052;-73
2022/03/14 05:22:55;;;;;;;8.47;5.60;;;;;;;9.62;78.31;101981.09;5270143;28;20035;-73
2022/03/14 05:25:27;;;;;;;8.47;6.00;;;;;;;9.62;78.13;101985.47;5272081;28;20024;-73
2022/03/14 05:27:58;;;;;;;9.47;6.67;;;;;;;9.59;78.39;101985.59;5272030;28;20028;-73
2022/03/14 05:30:30;;;;;;;12.80;7.57;;;;;;;9.53;78.30;101990.13;5273149;28;20039;-73
2022/03/14 05:33:01;;;;;;;9.63;7.60;;;;;;;9.50;78.65;101995.47;5271647;28;20067;-73
2022/03/14 05:35:33;;;;;;;11.77;7.97;;;;;;;9.59;78.36;102006.50;5272773;28;20044;-73
2022/03/14 05:38:04;;;;;;;11.17;8.00;;;;;;;9.58;78.10;102008.28;5258417;28;20029;-73
2022/03/14 05:40:35;;;;;;;10.90;7.10;;;;;;;9.43;78.95;102007.94;5251760;28;20033;-73
2022/03/14 05:43:09;;;;;;;13.50;8.90;;;;;;;9.53;78.90;102018.06;5252133;28;20388;-73
2022/03/14 05:45:40;;;;;;;10.40;7.50;;;;;;;9.51;78.65;102025.13;5251765;28;20443;-73
2022/03/14 05:48:12;;;;;;;14.07;8.30;;;;;;;9.44;78.79;102024.50;5252056;28;20025;-73
2022/03/14 05:50:43;;;;;;;13.83;8.23;;;;;;;9.42;79.08;102036.75;5251841;28;20029;-73
2022/03/14 05:53:14;;;;;;;14.40;8.93;;;;;;;9.43;79.20;102033.22;5250874;28;20607;-73
2022/03/14 05:55:46;;;;;;;10.50;7.93;;;;;;;9.40;79.54;102033.34;5252041;28;20040;-73
2022/03/14 05:58:17;;;;;;;14.40;9.03;;;;;;;9.43;79.50;102038.44;5251182;28;20033;-74
2022/03/14 06:00:51;;;;;;;12.13;9.47;;;;;;;9.47;79.27;102042.69;5252113;28;20107;-74
2022/03/14 06:03:22;;;;;;;14.82;9.05;;;;;;;9.37;79.76;102052.63;5270327;28;20032;-74
2022/03/14 06:05:54;;;;;;;12.07;9.43;;;;;;;9.46;79.35;102055.81;5272421;28;20471;-74
2022/03/14 06:08:25;;;;;;;10.10;8.40;;;;;;;9.44;80.28;102055.88;5270494;28;20052;-73
2022/03/14 06:10:57;;;;;;;15.00;10.03;;;;;;;9.37;79.93;102057.84;5271204;28;20555;-73
2022/03/14 06:13:28;;;;;;;13.90;8.60;;;;;;;9.50;79.49;102071.31;5271448;28;20027;-74
2022/03/14 06:15:59;;;;;;;13.07;9.63;;;;;;;9.51;79.47;102066.97;5272064;28;20036;-73
2022/03/14 06:18:31;;;;;;;15.47;9.57;;;;;;;9.37;80.05;102070.91;5265930;28;20017;-73
2022/03/14 06:21:02;;;;;;;15.97;10.47;;;;;;;9.36;80.17;102066.59;5249903;28;20099;-73
2022/03/14 06:23:34;;;;;;;16.60;10.70;;;;;;;9.43;80.31;102089.00;5255550;28;20025;-73
2022/03/14 06:26:05;;;;;;;15.73;10.63;;;;;;;9.53;79.76;102084.28;5253944;28;20029;-73
2022/03/14 06:28:36;;;;;;;16.83;11.50;;;;;;;9.48;79.50;102080.16;5250400;28;20086;-75
2022/03/14 06:31:09;;;;;;;12.33;10.27;;;;;;;9.44;79.96;102093.31;5251517;28;20442;-75
2022/03/14 06:33:41;;;;;;;13.03;11.27;;;;;;;9.47;80.03;102096.72;5250400;28;20045;-74
2022/03/14 06:36:12;;;;;;;17.03;11.43;;;;;;;9.46;80.36;102108.09;5252446;28;20743;-71
2022/03/14 06:38:44;;;;;;;14.77;11.23;;;;;;;9.53;80.29;102114.84;5249444;28;20036;-70
2022/03/14 06:41:16;;;;;;;17.27;12.73;;;;;;;9.43;80.96;102112.53;5250100;28;20031;-70
2022/03/14 06:43:48;;;;;;;15.37;11.40;;;;;;;9.55;80.54;102110.38;5256324;28;20029;-74
2022/03/14 06:46:19;;;;;;;16.30;12.80;;;;;;;9.55;81.03;102107.75;5266307;28;20056;-74
2022/03/14 06:48:51;;;;;;;15.37;12.67;;;;;;;9.48;80.58;102111.53;5260972;28;20471;-75
2022/03/14 06:51:24;;;;;;;17.23;12.07;;;;;;;9.37;81.04;102115.38;5253445;28;20059;-75
2022/03/14 06:53:55;;;;;;;14.53;12.30;;;;;;;9.42;81.23;102123.91;5249730;28;20020;-74
2022/03/14 06:56:26;;;;;;;17.77;12.10;;;;;;;9.41;80.79;102127.41;5267923;28;20483;-74
2022/03/14 06:58:58;;;;;;;19.03;12.73;;;;;;;9.42;80.66;102123.91;5269995;28;20460;-74
2022/03/14 07:01:30;;;;;;;16.17;11.37;;;;;;;9.40;80.42;102130.94;5271510;28;20033;-75
2022/03/14 07:04:02;;;;;;;14.33;10.80;;;;;;;9.40;80.56;102133.56;5270678;28;20463;-74
2022/03/14 07:06:34;;;;;;;15.30;11.13;;;;;;;9.38;80.53;102137.97;5269766;28;20029;-75
2022/03/14 07:09:07;;;;;;;16.07;12.27;;;;;;;9.42;80.36;102142.22;5269678;28;20056;-74
2022/03/14 07:11:39;;;;;;;16.77;10.93;;;;;;;9.34;80.16;102123.28;5271872;28;20025;-74
2022/03/14 07:14:10;;;;;;;13.67;11.00;;;;;;;9.51;80.69;102143.63;5253400;28;20404;-72
2022/03/14 07:16:41;;;;;;;13.97;11.10;;;;;;;9.65;79.84;102155.41;5248504;28;20066;-77
2022/03/14 07:19:13;;;;;;;19.00;11.90;;;;;;;9.48;79.66;102146.34;5250392;28;20064;-79
2022/03/14 07:21:44;;;;;;;17.70;11.80;;;;;;;9.53;79.36;102152.28;5248565;28;20365;-80
2022/03/14 07:24:15;;;;;;;17.30;11.43;;;;;;;9.61;79.38;102159.88;5243728;28;20055;-79
2022/03/14 07:26:47;;;;;;;18.47;11.60;;;;;;;9.64;79.11;102149.31;5247092;28;20107;-79
2022/03/14 07:29:18;;;;;;;14.53;10.73;;;;;;;9.57;79.10;102160.88;5250887;28;20022;-79
2022/03/14 07:31:50;;;;;;;14.53;10.80;;;;;;;9.54;78.41;102155.75;5247689;28;20107;-78
2022/03/14 07:34:21;;;;;;;14.80;10.90;;;;;;;9.51;79.00;102161.09;5248926;28;20013;-78
2022/03/14 07:36:52;;;;;;;14.33;11.33;;;;;;;9.53;79.03;102162.75;5248420;28;20086;-78
2022/03/14 07:39:23;;;;;;;17.63;12.50;;;;;;;9.58;78.98;102154.75;5251498;28;20033;-78
2022/03/14 07:41:55;;;;;;;14.40;10.87;;;;;;;9.65;78.87;102161.47;5250311;28;20056;-78
2022/03/14 07:44:27;;;;;;;17.87;11.50;;;;;;;9.70;78.49;102163.06;5247882;28;20719;-78
2022/03/14 07:46:58;;;;;;;15.07;12.30;;;;;;;9.78;78.27;102163.66;5243777;28;20033;-75
2022/03/14 07:49:29;;;;;;;20.63;11.93;;;;;;;9.78;78.38;102177.59;5248272;28;20104;-76
2022/03/14 07:52:00;;;;;;;18.10;12.47;;;;;;;9.84;78.13;102181.78;5247597;28;20036;-78
2022/03/14 07:54:31;;;;;;;15.30;11.67;;;;;;;9.84;77.78;102181.78;5253908;28;20017;-82
2022/03/14 07:57:03;;;;;;;16.87;11.67;;;;;;;9.83;77.90;102185.28;5253072;28;20021;-82
2022/03/14 07:59:35;;;;;;;16.77;12.43;;;;;;;9.80;77.86;102186.25;5251810;28;20029;-80
2022/03/14 08:02:06;;;;;;;15.90;12.67;;;;;;;9.85;77.44;102188.72;5255886;28;20111;-80
2022/03/14 08:04:39;;;;;;;15.93;12.07;;;;;;;9.90;77.65;102202.47;5254238;28;20032;-82
2022/03/14 08:07:10;;;;;;;17.17;13.13;;;;;;;9.97;76.74;102197.88;5251967;28;20407;-80
2022/03/14 08:09:42;;;;;;;17.70;12.40;;;;;;;9.87;77.44;102199.13;5240087;28;20037;-78
2022/03/14 08:12:13;;;;;;;16.17;12.00;;;;;;;9.89;77.72;102211.25;5239182;28;20133;-78
2022/03/14 08:14:46;;;;;;;17.47;13.07;;;;;;;9.87;77.43;102206.97;5242630;28;20151;-78
2022/03/14 08:17:18;;;;;;;17.50;13.00;;;;;;;9.88;77.66;102220.00;5256914;28;20101;-78
2022/03/14 08:19:49;;;;;;;20.90;13.37;;;;;;;9.84;77.37;102217.53;5240746;28;20029;-80
2022/03/14 08:22:21;;;;;;;30.10;14.20;;;;;;;9.92;77.15;102236.44;5238382;28;20048;-80
2022/03/14 08:24:53;;;;;;;16.23;11.93;;;;;;;9.90;77.00;102226.03;5239828;28;20056;-78
2022/03/14 08:27:24;;;;;;;19.33;12.07;;;;;;;9.88;77.13;102229.63;5241253;28;20036;-77
2022/03/14 08:29:55;;;;;;;19.50;12.10;;;;;;;9.99;76.51;102229.22;5264212;28;20025;-78
2022/03/14 08:32:26;;;;;;;21.63;12.87;;;;;;;9.86;77.17;102227.03;5252608;28;20025;-76
2022/03/14 08:35:06;;;;;;;21.30;11.43;;;;;;;9.92;76.83;102233.81;5259918;28;20383;-74
2022/03/14 08:37:40;;;;;;;17.23;11.90;;;;;;;9.99;76.89;102242.31;5252584;28;20542;-75
2022/03/14 08:40:14;;;;;;;19.88;11.93;;;;;;;10.00;76.69;102244.88;5252863;28;20120;-74
2022/03/14 08:42:45;;;;;;;21.95;12.38;;;;;;;10.02;76.99;102256.16;5253226;28;20043;-75
2022/03/14 08:45:17;;;;;;;19.43;11.80;;;;;;;10.09;76.36;102258.56;5265015;28;20106;-75
2022/03/14 08:47:48;;;;;;;18.37;11.30;;;;;;;10.08;76.37;102257.72;5273273;28;20052;-74
2022/03/14 08:50:20;;;;;;;19.30;11.83;;;;;;;10.10;76.40;102266.38;5273419;28;20027;-75
2022/03/14 08:52:52;;;;;;;17.03;10.93;;;;;;;10.17;76.04;102275.69;5268734;28;20058;-75
2022/03/14 08:55:25;;;;;;;14.70;9.80;;;;;;;10.21;75.15;102275.63;5261095;28;20071;-75
2022/03/14 08:57:56;;;;;;;18.63;10.20;;;;;;;10.23;75.66;102286.84;5252818;28;20028;-75
2022/03/14 09:00:29;;;;;;;13.93;8.97;;;;;;;10.32;74.78;102285.69;5250333;28;20032;-75
2022/03/14 09:03:00;;;;;;;18.60;10.03;;;;;;;10.32;74.98;102286.53;5252357;28;20031;-75
2022/03/14 09:05:31;;;;;;;15.43;9.60;;;;;;;10.46;74.75;102290.44;5252016;28;20025;-75
2022/03/14 09:08:04;;;;;;;16.93;8.80;;;;;;;10.59;73.69;102297.00;5252974;28;20051;-75
2022/03/14 09:10:36;;;;;;;15.47;8.17;;;;;;;10.59;74.32;102298.75;5254588;28;20113;-75
2022/03/14 09:13:07;;;;;;;15.93;9.20;;;;;;;11.08;72.61;102303.06;5251635;28;20025;-75
2022/03/14 09:15:39;;;;;;;14.83;8.07;;;;;;;11.68;71.22;102309.44;5251957;28;20040;-75
2022/03/14 09:18:10;;;;;;;17.33;8.53;;;;;;;11.49;69.58;102311.06;5253284;28;20043;-75
2022/03/14 09:20:42;;;;;;;18.10;8.93;;;;;;;11.45;69.40;102319.97;5250396;28;20037;-76
2022/03/14 09:23:13;;;;;;;15.27;8.87;;;;;;;11.49;69.00;102316.31;5251292;28;20086;-75
2022/03/14 09:25:44;;;;;;;14.67;8.60;;;;;;;11.67;68.72;102326.97;5251643;28;20025;-75
2022/03/14 09:28:16;;;;;;;15.53;9.57;;;;;;;11.78;68.37;102326.50;5265086;28;20029;-75
2022/03/14 09:30:47;;;;;;;13.23;7.93;;;;;;;11.68;68.23;102318.19;5248900;28;20060;-75
2022/03/14 09:33:19;;;;;;;13.57;7.43;;;;;;;11.98;67.75;102316.97;5250810;28;20025;-74
2022/03/14 09:35:50;;;;;;;13.63;6.97;;;;;;;12.14;65.67;102332.09;5251628;28;20027;-75
2022/03/14 09:38:22;;;;;;;14.43;8.10;;;;;;;11.95;65.18;102323.22;5251903;28;20025;-77
2022/03/14 09:40:53;;;;;;;11.43;6.47;;;;;;;11.86;65.53;102334.94;5249600;28;20044;-76
2022/03/14 09:43:25;;;;;;;16.00;9.17;;;;;;;11.79;66.05;102344.00;5256371;28;20038;-76
2022/03/14 09:45:59;;;;;;;15.93;6.90;;;;;;;11.83;65.60;102349.97;5273909;28;20028;-76
2022/03/14 09:48:36;;;;;;;10.55;6.25;;;;;;;11.87;65.56;102351.53;5273147;28;20036;-76
2022/03/14 09:51:07;;;;;;;12.33;6.27;;;;;;;11.95;65.06;102361.72;5260956;28;20135;-77
2022/03/14 09:53:39;;;;;;;12.83;7.07;;;;;;;12.10;64.88;102374.25;5248784;28;20103;-77
2022/03/14 09:56:11;;;;;;;12.33;6.23;;;;;;;12.15;64.55;102376.69;5248931;28;20041;-76
2022/03/14 09:58:44;;;;;;;14.33;8.17;;;;;;;12.31;64.18;102387.41;5252367;28;20083;-76
2022/03/14 10:01:17;;;;;;;13.32;7.32;;;;;;;12.18;64.00;102381.78;5259738;28;20575;-75
2022/03/14 10:03:49;;;;;;;11.63;6.97;;;;;;;12.18;63.94;102391.47;5250631;28;20029;-76
2022/03/14 10:06:20;;;;;;;13.20;7.07;;;;;;;12.07;64.39;102400.63;5248335;28;20575;-75
2022/03/14 10:08:51;;;;;;;17.63;7.33;;;;;;;12.01;64.46;102403.47;5251968;28;20045;-76
2022/03/14 10:11:24;;;;;;;19.67;8.00;;;;;;;11.92;64.64;102390.75;5226357;28;20052;-75
2022/03/14 10:13:56;;;;;;;13.50;6.67;;;;;;;11.82;65.32;102396.34;5271896;28;20042;-76
2022/03/14 10:16:27;;;;;;;10.63;7.53;;;;;;;11.76;66.11;102401.88;5270027;28;20444;-75
2022/03/14 10:19:07;;;;;;;10.57;6.43;;;;;;;11.97;64.66;102396.66;5272176;28;20099;-75
2022/03/14 10:21:42;;;;;;;11.83;6.20;;;;;;;12.06;63.76;102403.31;5258063;28;20031;-76
2022/03/14 10:24:13;;;;;;;16.47;5.97;;;;;;;12.16;63.70;102403.81;5249841;28;20526;-75
2022/03/14 10:26:45;;;;;;;11.57;6.10;;;;;;;12.17;63.17;102413.38;5217239;28;20036;-76
2022/03/14 10:29:19;;;;;;;11.97;6.37;;;;;;;12.13;63.05;102411.81;5251485;28;20555;-76
2022/03/14 10:31:54;;;;;;;10.90;6.40;;;;;;;12.08;62.57;102418.06;5248263;28;20017;-75
2022/03/14 10:34:26;;;;;;;10.77;7.43;;;;;;;12.04;62.69;102423.53;5249602;28;20040;-75
2022/03/14 10:36:57;;;;;;;10.30;6.80;;;;;;;12.07;62.53;102412.88;5250134;28;20037;-75
2022/03/14 10:39:31;;;;;;;9.17;6.77;;;;;;;12.29;62.95;102426.00;5251106;28;20028;-75
2022/03/14 10:42:10;;;;;;;10.00;6.17;;;;;;;12.53;62.16;102439.03;5248022;28;20505;-75
2022/03/14 10:44:42;;;;;;;11.90;7.23;;;;;;;12.49;61.36;102437.47;5250565;28;20519;-81
2022/03/14 10:47:14;;;;;;;11.03;6.97;;;;;;;12.52;61.39;102442.59;5251452;28;20025;-77
2022/03/14 10:49:45;;;;;;;11.57;5.57;;;;;;;12.56;61.33;102438.06;5268327;28;20083;-77
2022/03/14 10:52:20;;;;;;;9.93;5.67;;;;;;;12.64;61.43;102451.72;5245649;28;20120;-75
2022/03/14 10:54:51;;;;;;;19.25;7.70;;;;;;;12.67;61.41;102440.22;5232717;28;20064;-76
2022/03/14 10:57:26;;;;;;;9.33;6.60;;;;;;;12.67;60.28;102448.94;5248308;28;20075;-76
2022/03/14 10:59:58;;;;;;;7.67;5.20;;;;;;;12.53;60.63;102453.97;5247346;28;20017;-77
2022/03/14 11:02:31;;;;;;;11.17;6.03;;;;;;;12.54;61.19;102459.16;5246978;28;20078;-76
2022/03/14 11:05:05;;;;;;;10.77;5.93;;;;;;;12.42;61.15;102451.78;5249979;28;20033;-78
2022/03/14 11:07:36;;;;;;;11.60;5.45;;;;;;;12.62;60.97;102452.72;5253812;28;20025;-78
2022/03/14 11:10:09;;;;;;;9.77;4.80;;;;;;;12.95;60.55;102449.53;5250642;28;20663;-77
2022/03/14 11:12:40;;;;;;;8.60;5.67;;;;;;;12.97;60.37;102447.66;5248900;28;20750;-80
2022/03/14 11:15:13;;;;;;;8.13;4.77;;;;;;;13.28;57.96;102462.06;5250615;28;20048;-81
2022/03/14 11:17:45;;;;;;;10.30;4.88;;;;;;;13.22;58.12;102453.59;5251335;28;20549;-80
2022/03/14 11:20:17;;;;;;;10.97;5.10;;;;;;;13.33;57.22;102448.72;5249122;28;20769;-81
2022/03/14 11:22:49;;;;;;;11.80;5.13;;;;;;;13.40;57.07;102459.81;5249613;28;20098;-82
2022/03/14 11:25:22;;;;;;;8.30;4.17;;;;;;;13.73;55.63;102455.72;5250524;28;20758;-81
2022/03/14 11:27:55;;;;;;;8.73;3.87;;;;;;;13.89;55.38;102450.56;5253166;28;20051;-82
2022/03/14 11:30:27;;;;;;;8.15;3.85;;;;;;;14.11;54.28;102462.69;5248328;28;20014;-81
2022/03/14 11:32:59;;;;;;;10.40;3.33;;;;;;;14.11;54.53;102458.28;5252437;28;20021;-78
2022/03/14 11:35:31;;;;;;;7.17;3.00;;;;;;;14.44;52.74;102461.06;5251153;28;20025;-81
2022/03/14 11:38:02;;;;;;;9.00;2.80;;;;;;;14.55;51.84;102457.91;5251647;28;20099;-80
2022/03/14 11:40:35;;;;;;;6.30;3.20;;;;;;;14.55;50.38;102463.16;5248056;28;20082;-81
2022/03/14 11:43:06;;;;;;;6.93;3.10;;;;;;;14.39;51.83;102461.31;5249949;28;20479;-79